Time;durP1;ratioP1;P1;durP2;ratioP2;P2;SDS_P1;SDS_P2;PMS_P1;PMS_P2;Temp;Humidity;BMP_temperature;BMP_pressure;BME280_temperature;BME280_humidity;BME280_pressure;Samples;Min_cycle;Max_cycle;Signal;HPM_P1;HPM_P2
2022/08/19 00:00:31;;;;;;;11.80;7.10;;;;;;;24.33;58.95;100045.29;106753;1271;22468;-76
2022/08/19 00:02:59;;;;;;;10.50;6.80;;;;;;;24.30;59.27;100041.88;106694;1271;22907;-77
2022/08/19 00:05:25;;;;;;;7.90;7.10;;;;;;;24.31;59.31;100044.70;106574;1271;25251;-77
2022/08/19 00:07:52;;;;;;;8.50;6.20;;;;;;;24.28;59.34;100042.17;106465;1271;24333;-78
2022/08/19 00:10:20;;;;;;;11.10;6.50;;;;;;;24.32;59.22;100044.10;106431;1271;23198;-75
2022/08/19 00:12:47;;;;;;;12.50;6.90;;;;;;;24.30;59.40;100044.61;106411;1271;25260;-75
2022/08/19 00:15:18;;;;;;;9.50;7.30;;;;;;;24.29;59.57;100039.85;106479;1271;22715;-75
2022/08/19 00:17:46;;;;;;;13.20;7.20;;;;;;;24.28;59.51;100044.41;106442;1268;24336;-77
2022/08/19 00:20:17;;;;;;;10.00;7.30;;;;;;;24.26;59.43;100045.63;106388;1271;23442;-75
2022/08/19 00:22:45;;;;;;;9.50;7.20;;;;;;;24.26;59.50;100047.27;106380;1271;24260;-74
2022/08/19 00:25:13;;;;;;;10.50;7.40;;;;;;;24.26;59.75;100047.09;106337;1271;25303;-78
2022/08/19 00:27:41;;;;;;;8.40;7.20;;;;;;;24.23;59.53;100044.90;106364;1271;26503;-78
2022/08/19 00:30:09;;;;;;;10.20;7.20;;;;;;;24.21;59.55;100044.33;106349;1271;26579;-73
2022/08/19 00:32:38;;;;;;;8.30;7.30;;;;;;;24.22;59.78;100052.39;106427;1271;22525;-75
2022/08/19 00:35:06;;;;;;;9.00;7.00;;;;;;;24.20;59.65;100053.23;106407;1271;25318;-73
2022/08/19 00:37:34;;;;;;;8.40;7.10;;;;;;;24.20;59.92;100054.10;106366;1271;25468;-75
2022/08/19 00:40:04;;;;;;;11.20;7.20;;;;;;;24.19;60.10;100055.08;106223;1271;24267;-76
2022/08/19 00:42:31;;;;;;;9.60;7.30;;;;;;;24.17;60.06;100056.17;106444;1271;22942;-74
2022/08/19 00:44:58;;;;;;;12.70;7.30;;;;;;;24.14;60.20;100052.92;106401;1271;22772;-75
2022/08/19 00:47:25;;;;;;;9.40;7.40;;;;;;;24.11;60.49;100055.59;106384;1271;23530;-75
2022/08/19 00:49:56;;;;;;;14.10;7.60;;;;;;;24.07;60.56;100057.86;106425;1271;22538;-75
2022/08/19 00:52:36;;;;;;;10.10;7.70;;;;;;;24.06;60.47;100056.38;106303;1271;23311;-73
2022/08/19 00:55:08;;;;;;;7.90;6.70;;;;;;;24.05;60.74;100054.84;106515;1271;22749;-73
2022/08/19 00:57:38;;;;;;;10.10;7.30;;;;;;;24.01;60.79;100047.14;106400;1271;22560;-72
2022/08/19 01:00:11;;;;;;;9.90;7.90;;;;;;;24.01;61.10;100046.46;106431;1271;22534;-77
2022/08/19 01:02:39;;;;;;;10.80;8.40;;;;;;;23.99;61.10;100047.27;106459;1271;22602;-77
2022/08/19 01:05:11;;;;;;;9.00;7.60;;;;;;;23.99;60.86;100052.83;106479;1271;22687;-77
2022/08/19 01:07:40;;;;;;;11.30;8.30;;;;;;;23.98;61.39;100059.23;106484;1268;22538;-73
2022/08/19 01:10:18;;;;;;;13.10;8.70;;;;;;;23.95;61.55;100063.77;106338;1271;22541;-77
2022/08/19 01:12:49;;;;;;;8.90;8.00;;;;;;;23.94;61.64;100064.23;106552;1271;22696;-78
2022/08/19 01:15:21;;;;;;;11.20;8.40;;;;;;;23.91;61.74;100060.99;106123;1274;22594;-75
2022/08/19 01:17:48;;;;;;;9.60;8.20;;;;;;;23.87;61.88;100060.75;106135;1274;22553;-77
2022/08/19 01:20:20;;;;;;;8.60;7.80;;;;;;;23.81;62.07;100059.86;105945;1274;25194;-83
2022/08/19 01:22:48;;;;;;;10.20;8.30;;;;;;;23.78;62.17;100064.25;106130;1274;22553;-76
2022/08/19 01:25:18;;;;;;;12.30;8.80;;;;;;;23.75;62.12;100062.61;106057;1274;25361;-82
2022/08/19 01:27:48;;;;;;;14.80;8.70;;;;;;;23.74;62.54;100062.69;106180;1274;23143;-77
2022/08/19 01:30:27;;;;;;;9.70;7.70;;;;;;;23.71;62.53;100064.69;106069;1274;25357;-75
2022/08/19 01:32:55;;;;;;;8.70;7.40;;;;;;;23.69;62.49;100067.89;105771;1275;24442;-77
2022/08/19 01:35:24;;;;;;;11.40;7.70;;;;;;;23.70;62.55;100065.14;106160;1274;22796;-72
2022/08/19 01:38:07;;;;;;;10.00;8.00;;;;;;;23.70;62.50;100066.56;106074;1274;22685;-79
2022/08/19 01:40:38;;;;;;;10.40;8.30;;;;;;;23.68;62.56;100065.45;105976;1274;25236;-77
2022/08/19 01:43:05;;;;;;;10.10;8.10;;;;;;;23.66;62.57;100063.45;105910;1277;24253;-80
2022/08/19 01:45:34;;;;;;;9.00;8.00;;;;;;;23.61;62.38;100061.08;105742;1277;24240;-78
2022/08/19 01:48:02;;;;;;;13.50;8.20;;;;;;;23.57;62.53;100060.80;105937;1274;25255;-73
2022/08/19 01:50:31;;;;;;;9.00;7.90;;;;;;;23.56;62.66;100053.88;106022;1273;25424;-75
2022/08/19 01:52:59;;;;;;;10.90;8.30;;;;;;;23.54;62.98;100053.12;106466;1271;22704;-75
2022/08/19 01:55:36;;;;;;;9.70;8.20;;;;;;;23.53;62.79;100049.41;106539;1271;25297;-72
2022/08/19 01:58:12;;;;;;;9.30;8.50;;;;;;;23.48;62.90;100049.17;106305;1271;22546;-75
2022/08/19 02:00:39;;;;;;;11.30;8.60;;;;;;;23.46;63.28;100047.02;106502;1271;22675;-71
2022/08/19 02:03:06;;;;;;;9.70;7.50;;;;;;;23.43;63.07;100045.57;106207;1271;22530;-80
2022/08/19 02:05:33;;;;;;;8.40;7.60;;;;;;;23.43;63.33;100048.27;106377;1271;22755;-77
2022/08/19 02:08:00;;;;;;;8.90;7.80;;;;;;;23.43;63.25;100052.58;106509;1271;22843;-79
2022/08/19 02:10:26;;;;;;;9.90;8.20;;;;;;;23.43;63.21;100051.70;106759;1271;24288;-73
2022/08/19 02:12:54;;;;;;;11.70;8.10;;;;;;;23.43;63.15;100051.14;106282;1271;22528;-77
2022/08/19 02:15:22;;;;;;;9.40;7.60;;;;;;;23.44;63.41;100052.75;106497;1271;22638;-76
2022/08/19 02:17:48;;;;;;;10.30;8.00;;;;;;;23.43;63.48;100049.00;106554;1271;24013;-77
2022/08/19 02:20:16;;;;;;;10.00;8.60;;;;;;;23.41;63.70;100050.80;106392;1271;22534;-77
2022/08/19 02:22:44;;;;;;;8.30;7.50;;;;;;;23.36;63.50;100050.00;106500;1271;22609;-78
2022/08/19 02:25:14;;;;;;;12.50;8.50;;;;;;;23.31;63.72;100044.44;106421;1271;22915;-76
2022/08/19 02:27:42;;;;;;;9.40;8.00;;;;;;;23.27;63.87;100040.95;106363;1271;22615;-79
2022/08/19 02:30:13;;;;;;;10.90;8.00;;;;;;;23.23;63.81;100039.54;106349;1271;22522;-76
2022/08/19 02:32:40;;;;;;;9.60;8.60;;;;;;;23.21;64.01;100033.24;106560;1271;22645;-78
2022/08/19 02:35:11;;;;;;;9.20;8.30;;;;;;;23.18;64.12;100034.27;106305;1271;22601;-77
2022/08/19 02:40:26;;;;;;;12.80;8.80;;;;;;;23.10;64.24;100026.74;106454;1271;25341;-76
2022/08/19 02:42:53;;;;;;;10.80;8.70;;;;;;;23.12;64.32;100033.99;106515;1271;25364;-76
2022/08/19 02:45:21;;;;;;;10.20;8.20;;;;;;;23.11;64.33;100032.48;106419;1270;22525;-76
2022/08/19 02:47:48;;;;;;;10.50;8.30;;;;;;;23.06;64.17;100034.04;106430;1271;22556;-76
2022/08/19 02:50:15;;;;;;;12.10;8.40;;;;;;;23.03;64.40;100040.52;106408;1272;25400;-76
2022/08/19 02:52:42;;;;;;;9.70;8.60;;;;;;;23.02;64.36;100044.02;106502;1271;25427;-76
2022/08/19 02:55:08;;;;;;;9.80;7.90;;;;;;;23.00;64.54;100045.90;106354;1270;25646;-74
2022/08/19 02:57:35;;;;;;;10.70;8.40;;;;;;;23.00;64.77;100044.29;106269;1271;22525;-75
2022/08/19 03:00:07;;;;;;;11.20;8.00;;;;;;;22.99;64.65;100034.33;106092;1271;22547;-77
2022/08/19 03:02:33;;;;;;;10.30;8.20;;;;;;;23.03;64.73;100037.48;106213;1271;22830;-76
2022/08/19 03:05:03;;;;;;;12.80;8.90;;;;;;;23.01;64.58;100034.32;106256;1271;22551;-76
2022/08/19 03:07:30;;;;;;;11.40;8.80;;;;;;;23.00;64.79;100033.36;106370;1271;23013;-76
2022/08/19 03:09:57;;;;;;;14.80;8.30;;;;;;;22.98;64.71;100035.27;106412;1271;24272;-75
2022/08/19 03:12:24;;;;;;;12.30;8.70;;;;;;;22.95;64.81;100033.36;106418;1271;22535;-79
2022/08/19 03:14:52;;;;;;;11.70;8.90;;;;;;;22.92;64.91;100036.77;106367;1274;22607;-74
2022/08/19 03:17:20;;;;;;;11.10;8.20;;;;;;;22.87;65.01;100038.36;106222;1271;24422;-76
2022/08/19 03:19:47;;;;;;;13.50;9.10;;;;;;;22.86;64.85;100038.80;106392;1271;22684;-74
2022/08/19 03:22:13;;;;;;;8.60;7.70;;;;;;;22.84;65.13;100031.00;106318;1272;22583;-75
2022/08/19 03:24:40;;;;;;;9.20;8.10;;;;;;;22.83;65.16;100027.45;106340;1274;22553;-75
2022/08/19 03:27:07;;;;;;;8.80;8.00;;;;;;;22.84;65.25;100027.23;106303;1271;22688;-75
2022/08/19 03:29:37;;;;;;;10.40;8.70;;;;;;;22.82;65.33;100026.98;106452;1271;24364;-76
2022/08/19 03:32:10;;;;;;;10.30;9.30;;;;;;;22.81;65.22;100034.08;106406;1271;22629;-76
2022/08/19 03:34:56;;;;;;;11.80;8.50;;;;;;;22.80;65.47;100042.55;106375;1271;25315;-77
2022/08/19 03:37:23;;;;;;;13.00;8.60;;;;;;;22.79;65.56;100044.46;106613;1271;22679;-77
2022/08/19 03:39:51;;;;;;;9.40;7.60;;;;;;;22.77;65.54;100046.00;106566;1271;25332;-74
2022/08/19 03:42:18;;;;;;;14.20;8.30;;;;;;;22.78;65.57;100044.73;106934;1271;22634;-75
2022/08/19 03:45:07;;;;;;;16.30;8.80;;;;;;;22.79;65.75;100045.88;106388;1271;24384;-79
2022/08/19 03:47:34;;;;;;;11.40;9.20;;;;;;;22.82;65.58;100044.61;106703;1271;25235;-75
2022/08/19 03:50:01;;;;;;;9.60;7.90;;;;;;;22.84;65.74;100049.30;107202;1268;22534;-75
2022/08/19 03:52:28;;;;;;;9.80;8.20;;;;;;;22.85;65.67;100052.33;106611;1271;22681;-77
2022/08/19 03:54:54;;;;;;;12.10;9.20;;;;;;;22.85;65.52;100057.33;106469;1271;22643;-78
2022/08/19 03:57:21;;;;;;;11.50;9.30;;;;;;;22.84;65.78;100057.37;106311;1271;22544;-78
2022/08/19 03:59:58;;;;;;;12.90;8.70;;;;;;;22.83;65.39;100055.46;106305;1271;22546;-76
2022/08/19 04:02:38;;;;;;;9.70;8.10;;;;;;;22.81;65.44;100057.77;106305;1271;22537;-77
2022/08/19 04:05:07;;;;;;;12.00;9.10;;;;;;;22.82;65.68;100062.20;106320;1271;24269;-75
2022/08/19 04:07:35;;;;;;;12.60;9.20;;;;;;;22.83;65.48;100060.89;106333;1269;22519;-77
2022/08/19 04:10:03;;;;;;;18.20;8.70;;;;;;;22.86;65.59;100061.58;106325;1272;22695;-76
2022/08/19 04:12:30;;;;;;;15.10;8.20;;;;;;;22.87;65.69;100056.42;106454;1271;22562;-76
2022/08/19 04:14:58;;;;;;;11.60;9.10;;;;;;;22.89;65.54;100055.47;106328;1271;25321;-76
2022/08/19 04:17:25;;;;;;;10.00;8.90;;;;;;;22.92;65.51;100053.66;106394;1271;22547;-75
2022/08/19 04:19:52;;;;;;;14.50;8.60;;;;;;;22.94;65.67;100052.42;106098;1271;23208;-73
2022/08/19 04:22:19;;;;;;;11.80;9.00;;;;;;;22.96;65.33;100045.09;106312;1271;22670;-76
2022/08/19 04:24:45;;;;;;;10.20;8.50;;;;;;;22.98;65.36;100045.66;106518;1271;24218;-76
2022/08/19 04:27:13;;;;;;;9.20;8.30;;;;;;;22.99;65.47;100042.21;106421;1271;24263;-75
2022/08/19 04:29:40;;;;;;;14.30;8.90;;;;;;;22.96;65.25;100037.77;106360;1271;22525;-73
2022/08/19 04:32:06;;;;;;;12.50;8.80;;;;;;;22.97;65.30;100044.52;106322;1271;23080;-78
2022/08/19 04:34:34;;;;;;;13.10;8.40;;;;;;;23.03;65.50;100050.74;106364;1271;22586;-77
2022/08/19 04:37:01;;;;;;;11.00;9.10;;;;;;;23.07;65.47;100055.21;106270;1271;25235;-76
2022/08/19 04:45:09;;;;;;;12.20;9.20;;;;;;;23.17;65.34;100064.73;106527;1271;22675;-76
2022/08/19 04:47:40;;;;;;;12.40;9.70;;;;;;;23.19;65.30;100058.11;106583;1271;22653;-75
2022/08/19 04:50:24;;;;;;;10.50;9.00;;;;;;;23.22;65.07;100052.33;106622;1271;22548;-78
2022/08/19 04:52:52;;;;;;;9.60;8.50;;;;;;;23.29;65.12;100042.60;106668;1271;25424;-76
2022/08/19 04:55:19;;;;;;;12.00;9.10;;;;;;;23.35;65.24;100042.15;106592;1271;22543;-76
2022/08/19 04:57:46;;;;;;;9.90;8.90;;;;;;;23.44;65.02;100043.18;106340;1271;25503;-75
2022/08/19 05:00:12;;;;;;;9.70;8.40;;;;;;;23.52;64.99;100047.88;106492;1271;24069;-74
2022/08/19 05:02:40;;;;;;;9.40;8.10;;;;;;;23.59;64.69;100048.84;106481;1268;22702;-76
2022/08/19 05:05:07;;;;;;;12.90;9.00;;;;;;;23.65;64.72;100049.48;106301;1271;22544;-75
2022/08/19 05:07:35;;;;;;;14.00;8.90;;;;;;;23.67;64.70;100047.36;106462;1271;22682;-77
2022/08/19 05:10:05;;;;;;;11.90;8.30;;;;;;;23.69;64.56;100044.16;106312;1271;22533;-76
2022/08/19 05:12:32;;;;;;;11.40;8.90;;;;;;;23.71;64.32;100045.27;106372;1271;22971;-74
2022/08/19 05:15:00;;;;;;;11.20;7.90;;;;;;;23.74;64.28;100042.35;106252;1271;25320;-77
2022/08/19 05:17:27;;;;;;;13.00;8.20;;;;;;;23.74;64.12;100045.23;106337;1271;22549;-75
2022/08/19 05:22:47;;;;;;;11.70;8.40;;;;;;;23.75;63.94;100045.38;106365;1271;25238;-76
2022/08/19 05:25:20;;;;;;;9.90;8.50;;;;;;;23.72;64.02;100047.36;106335;1271;22527;-76
2022/08/19 05:27:48;;;;;;;12.80;7.70;;;;;;;23.74;63.94;100055.55;106298;1271;22744;-76
2022/08/19 05:30:16;;;;;;;9.10;8.00;;;;;;;23.76;63.93;100060.03;106332;1271;22537;-76
2022/08/19 05:32:44;;;;;;;10.50;8.40;;;;;;;23.82;64.09;100061.46;106283;1271;25248;-75
2022/08/19 05:35:11;;;;;;;14.80;8.90;;;;;;;23.85;64.03;100063.20;106321;1271;22681;-76
2022/08/19 05:37:42;;;;;;;11.50;8.10;;;;;;;23.87;63.64;100060.91;106368;1271;24237;-75
2022/08/19 05:40:10;;;;;;;13.30;8.00;;;;;;;23.89;63.67;100060.60;106349;1271;22597;-76
2022/08/19 05:42:37;;;;;;;12.50;7.60;;;;;;;23.89;63.45;100063.86;106288;1271;25357;-76
2022/08/19 05:45:04;;;;;;;11.90;7.50;;;;;;;23.87;63.30;100071.13;106203;1271;25335;-75
2022/08/19 05:47:32;;;;;;;11.80;7.80;;;;;;;23.88;63.35;100078.83;106338;1271;24225;-75
2022/08/19 05:49:59;;;;;;;9.50;8.20;;;;;;;23.89;63.51;100078.60;106384;1271;24886;-77
2022/08/19 05:52:26;;;;;;;13.50;8.00;;;;;;;23.93;63.28;100084.27;106331;1271;25512;-77
2022/08/19 05:54:55;;;;;;;12.40;8.10;;;;;;;23.91;63.11;100082.93;106231;1271;22688;-76
2022/08/19 05:57:24;;;;;;;9.00;7.70;;;;;;;23.90;63.16;100077.21;106072;1271;22527;-76
2022/08/19 05:59:51;;;;;;;12.40;7.10;;;;;;;23.91;63.16;100074.65;106306;1271;22538;-75
2022/08/19 06:02:28;;;;;;;11.70;7.60;;;;;;;23.94;63.15;100067.05;106212;1271;25248;-75
2022/08/19 06:04:55;;;;;;;13.80;7.90;;;;;;;23.99;63.20;100067.44;106278;1271;25245;-75
2022/08/19 06:07:22;;;;;;;10.90;7.60;;;;;;;24.03;63.10;100065.73;106243;1271;25397;-76
2022/08/19 06:09:49;;;;;;;13.20;7.50;;;;;;;24.06;62.86;100062.12;106469;1271;22535;-77
2022/08/19 06:12:34;;;;;;;9.10;7.30;;;;;;;24.09;62.91;100053.29;106477;1271;25402;-78
2022/08/19 06:15:11;;;;;;;11.40;7.40;;;;;;;24.15;62.86;100044.98;106504;1271;22566;-77
2022/08/19 06:17:38;;;;;;;10.10;7.90;;;;;;;24.19;62.97;100044.32;106546;1271;22561;-77
2022/08/19 06:20:08;;;;;;;11.70;7.70;;;;;;;24.24;63.06;100045.42;106755;1271;22548;-76
2022/08/19 06:22:44;;;;;;;9.40;7.60;;;;;;;24.26;62.82;100049.95;106568;1271;25637;-78
2022/08/19 06:25:13;;;;;;;9.20;7.50;;;;;;;24.32;62.71;100066.08;106556;1271;22626;-79
2022/08/19 06:27:41;;;;;;;12.90;8.50;;;;;;;24.34;62.76;100070.55;106297;1274;23191;-78
2022/08/19 06:30:28;;;;;;;12.10;7.50;;;;;;;24.39;62.64;100063.56;106447;1274;24227;-76
2022/08/19 06:32:55;;;;;;;9.20;6.90;;;;;;;24.43;62.60;100061.11;106114;1274;24221;-78
2022/08/19 06:35:21;;;;;;;12.80;7.10;;;;;;;24.49;62.58;100063.02;106115;1274;24331;-79
2022/08/19 06:37:48;;;;;;;9.70;7.20;;;;;;;24.57;62.56;100065.36;106129;1274;22828;-75
2022/08/19 06:40:15;;;;;;;11.50;7.80;;;;;;;24.65;62.41;100069.44;106002;1274;24416;-77
2022/08/19 06:42:42;;;;;;;13.10;8.20;;;;;;;24.72;62.33;100070.16;106159;1274;25557;-78
2022/08/19 06:45:22;;;;;;;8.00;7.20;;;;;;;24.80;62.20;100069.58;106114;1271;22704;-76
2022/08/19 06:47:55;;;;;;;15.20;7.30;;;;;;;24.88;62.08;100069.19;106379;1271;25360;-74
2022/08/19 06:50:24;;;;;;;9.70;7.20;;;;;;;24.95;61.78;100069.77;106422;1271;22572;-74
2022/08/19 06:52:51;;;;;;;11.40;7.10;;;;;;;25.01;61.64;100071.92;106452;1271;22690;-76
2022/08/19 06:55:18;;;;;;;11.30;7.80;;;;;;;25.08;61.69;100073.87;106205;1271;22648;-76
2022/08/19 06:57:46;;;;;;;8.90;6.80;;;;;;;25.13;61.44;100064.84;106321;1271;24260;-77
2022/08/19 07:00:13;;;;;;;9.90;6.80;;;;;;;25.22;61.33;100062.40;106268;1271;22556;-76
2022/08/19 07:02:41;;;;;;;9.50;7.20;;;;;;;25.29;60.97;100060.79;106342;1271;25229;-76
2022/08/19 07:05:18;;;;;;;9.70;6.60;;;;;;;25.36;60.54;100061.70;106329;1271;25293;-76
2022/08/19 07:07:45;;;;;;;9.90;6.80;;;;;;;25.42;60.42;100067.33;106340;1271;22558;-77
2022/08/19 07:10:13;;;;;;;12.80;7.50;;;;;;;25.51;60.18;100064.71;106334;1271;22545;-74
2022/08/19 07:12:41;;;;;;;11.30;7.30;;;;;;;25.56;59.79;100065.73;106268;1271;22672;-77
2022/08/19 07:15:10;;;;;;;11.30;7.20;;;;;;;25.64;59.79;100074.55;106243;1271;24208;-79
2022/08/19 07:17:39;;;;;;;10.50;8.60;;;;;;;25.71;59.81;100077.96;106245;1271;24397;-78
2022/08/19 07:20:09;;;;;;;10.60;8.20;;;;;;;25.75;59.63;100083.94;105664;1277;25664;-75
2022/08/19 07:22:39;;;;;;;7.30;6.60;;;;;;;25.78;59.44;100083.16;105640;1278;24385;-78
2022/08/19 07:25:08;;;;;;;8.40;7.10;;;;;;;25.82;59.41;100080.58;105834;1277;23950;-78
2022/08/19 07:27:36;;;;;;;10.40;6.70;;;;;;;25.82;59.31;100081.42;105859;1276;22553;-79
2022/08/19 07:30:07;;;;;;;9.70;6.70;;;;;;;25.84;59.23;100075.52;105927;1277;22537;-79
2022/08/19 07:32:38;;;;;;;11.80;7.30;;;;;;;25.86;59.30;100069.23;106182;1277;22599;-76
2022/08/19 07:35:06;;;;;;;8.70;6.70;;;;;;;25.88;59.28;100056.23;106251;1277;22511;-73
2022/08/19 07:37:35;;;;;;;14.00;7.90;;;;;;;25.91;59.28;100054.96;106147;1274;22541;-74
2022/08/19 07:40:05;;;;;;;11.10;6.90;;;;;;;25.96;59.33;100048.42;106882;1271;22640;-77
2022/08/19 07:42:33;;;;;;;9.80;7.30;;;;;;;26.02;59.41;100052.43;107344;1269;22593;-75
2022/08/19 07:44:59;;;;;;;9.80;7.10;;;;;;;26.08;59.26;100055.24;107005;1271;24465;-78
2022/08/19 07:47:27;;;;;;;10.50;6.70;;;;;;;26.12;58.97;100061.57;106775;1270;24780;-81
2022/08/19 07:50:15;;;;;;;12.00;7.40;;;;;;;26.17;59.01;100062.77;106490;1271;22558;-79
2022/08/19 07:52:44;;;;;;;9.80;7.10;;;;;;;26.24;59.13;100068.75;106362;1271;24281;-78
2022/08/19 07:55:18;;;;;;;10.30;7.10;;;;;;;26.28;58.74;100065.90;106428;1271;25250;-77
2022/08/19 07:58:05;;;;;;;12.00;6.70;;;;;;;26.30;58.86;100064.13;106475;1271;23207;-77
2022/08/19 08:00:32;;;;;;;11.60;7.30;;;;;;;26.35;58.83;100063.64;106416;1271;25406;-76
2022/08/19 08:02:59;;;;;;;11.80;7.40;;;;;;;26.39;58.78;100063.66;106311;1269;22567;-79
2022/08/19 08:11:14;;;;;;;10.70;7.30;;;;;;;26.53;58.66;100052.40;106006;1271;24310;-78
2022/08/19 08:13:41;;;;;;;11.00;7.40;;;;;;;26.57;58.65;100053.13;106516;1271;26666;-76
2022/08/19 08:16:08;;;;;;;13.10;7.40;;;;;;;26.63;58.61;100055.75;106477;1271;26500;-75
2022/08/19 08:18:42;;;;;;;9.80;7.90;;;;;;;26.67;58.48;100049.93;106439;1271;25786;-77
2022/08/19 08:21:18;;;;;;;9.10;7.20;;;;;;;26.73;58.10;100054.95;106332;1271;22521;-76
2022/08/19 08:23:45;;;;;;;8.80;7.10;;;;;;;26.82;58.23;100056.02;106391;1269;24218;-78
2022/08/19 08:26:14;;;;;;;8.30;6.60;;;;;;;26.91;58.23;100058.69;106340;1271;23954;-82
2022/08/19 08:28:41;;;;;;;15.10;8.50;;;;;;;27.01;57.98;100065.30;106159;1271;22520;-79
2022/08/19 08:31:14;;;;;;;8.00;7.20;;;;;;;27.11;57.63;100066.77;106510;1271;22531;-76
2022/08/19 08:33:42;;;;;;;13.30;7.70;;;;;;;27.22;57.56;100067.35;106560;1271;22525;-76
2022/08/19 08:36:10;;;;;;;8.10;7.20;;;;;;;27.34;57.51;100062.59;106540;1271;22543;-79
2022/08/19 08:38:38;;;;;;;10.60;9.60;;;;;;;27.48;57.33;100062.10;106408;1271;22556;-77
2022/08/19 08:41:27;;;;;;;12.00;7.60;;;;;;;27.63;57.11;100071.64;106512;1271;25337;-77
2022/08/19 08:43:56;;;;;;;9.80;6.90;;;;;;;27.78;56.20;100069.70;106360;1271;23037;-77
2022/08/19 08:46:38;;;;;;;7.80;6.70;;;;;;;27.89;55.88;100063.84;106429;1271;25239;-76
2022/08/19 08:49:26;;;;;;;7.70;6.90;;;;;;;27.99;55.76;100051.76;106321;1271;22543;-76
2022/08/19 08:52:11;;;;;;;9.20;6.40;;;;;;;28.13;55.50;100061.36;106487;1271;24288;-77
2022/08/19 08:54:46;;;;;;;8.20;6.50;;;;;;;28.21;55.44;100055.41;106499;1271;24749;-78
2022/08/19 08:57:31;;;;;;;8.40;6.30;;;;;;;28.35;55.10;100071.06;106403;1271;25261;-75
2022/08/19 09:00:12;;;;;;;8.70;7.40;;;;;;;28.40;54.31;100078.54;106408;1271;25232;-78
2022/08/19 09:02:42;;;;;;;10.80;6.50;;;;;;;28.44;54.14;100086.02;105889;1274;25319;-77
2022/08/19 09:05:12;;;;;;;7.70;6.60;;;;;;;28.50;54.15;100086.20;105947;1274;22830;-76
2022/08/19 09:07:49;;;;;;;10.40;7.00;;;;;;;28.60;53.91;100080.44;105977;1274;25340;-76
2022/08/19 09:10:22;;;;;;;8.10;7.30;;;;;;;28.71;53.77;100073.09;105979;1274;22598;-76
2022/08/19 09:13:03;;;;;;;9.70;6.80;;;;;;;28.87;53.57;100080.91;105995;1274;25337;-77
2022/08/19 09:15:44;;;;;;;10.80;6.70;;;;;;;28.97;53.25;100085.05;105911;1274;25251;-77
2022/08/19 09:18:15;;;;;;;9.80;6.60;;;;;;;29.10;53.18;100078.88;105928;1274;22551;-75
2022/08/19 09:20:47;;;;;;;8.50;6.50;;;;;;;29.20;52.98;100077.21;105974;1271;25235;-75
2022/08/19 09:23:15;;;;;;;7.80;6.20;;;;;;;29.29;53.00;100077.44;106267;1271;24227;-76
2022/08/19 09:25:41;;;;;;;7.10;6.40;;;;;;;29.40;53.11;100075.56;106361;1269;22836;-78
2022/08/19 09:28:10;;;;;;;7.70;6.10;;;;;;;29.51;52.94;100081.39;106416;1271;23203;-75
2022/08/19 09:30:48;;;;;;;14.00;7.30;;;;;;;29.64;52.57;100081.83;106311;1270;22560;-76
2022/08/19 09:33:19;;;;;;;9.60;6.60;;;;;;;29.77;52.38;100084.11;106418;1271;22550;-74
2022/08/19 09:35:47;;;;;;;10.20;6.60;;;;;;;29.89;51.88;100081.67;106396;1271;22550;-78
2022/08/19 09:38:20;;;;;;;15.60;7.00;;;;;;;30.03;51.58;100082.70;106544;1271;22561;-75
2022/08/19 09:40:47;;;;;;;11.70;6.70;;;;;;;30.15;51.45;100081.95;106366;1271;25306;-79
2022/08/19 09:43:14;;;;;;;10.30;6.90;;;;;;;30.26;51.01;100084.67;106521;1271;24214;-78
2022/08/19 09:46:00;;;;;;;7.00;5.70;;;;;;;30.38;50.92;100086.66;106566;1271;22670;-76
2022/08/19 09:48:27;;;;;;;13.60;6.10;;;;;;;30.50;50.34;100092.59;106486;1269;25244;-76
2022/08/19 09:50:54;;;;;;;8.30;5.70;;;;;;;30.56;49.29;100097.19;106439;1271;23945;-78
2022/08/19 09:53:22;;;;;;;11.60;6.00;;;;;;;30.59;48.01;100095.96;106430;1271;25405;-75
2022/08/19 09:55:52;;;;;;;8.70;5.70;;;;;;;30.64;47.64;100088.80;106460;1268;25245;-78
2022/08/19 09:58:19;;;;;;;7.60;5.50;;;;;;;30.74;46.72;100095.05;106560;1270;22638;-76
2022/08/19 10:00:53;;;;;;;8.10;5.50;;;;;;;30.82;46.49;100091.08;106428;1270;25242;-78
2022/08/19 10:03:21;;;;;;;10.80;5.40;;;;;;;30.95;46.24;100094.84;106518;1270;22561;-76
2022/08/19 10:05:56;;;;;;;;;;;;;;;31.10;45.99;100082.84;106402;1271;26490;-75
2022/08/19 10:08:27;;;;;;;6.50;5.10;;;;;;;31.19;45.36;100082.81;106370;1271;22668;-79
2022/08/19 10:10:55;;;;;;;6.80;5.60;;;;;;;31.27;45.30;100075.48;106352;1271;22560;-78
2022/08/19 10:13:27;;;;;;;8.40;6.10;;;;;;;31.38;45.01;100076.01;106558;1269;26068;-78
2022/08/19 10:16:02;;;;;;;8.70;5.90;;;;;;;31.46;44.85;100075.59;106422;1271;25531;-78
2022/08/19 10:18:30;;;;;;;;;;;;;;;31.55;45.20;100073.72;106414;1271;24227;-74
2022/08/19 10:21:12;;;;;;;10.30;5.60;;;;;;;31.69;45.19;100071.38;106356;1271;22688;-79
2022/08/19 10:23:44;;;;;;;6.30;4.90;;;;;;;31.85;44.77;100067.05;106442;1271;25305;-77
2022/08/19 10:26:15;;;;;;;6.50;5.40;;;;;;;31.91;44.27;100064.95;106455;1271;26513;-74
2022/08/19 10:28:45;;;;;;;8.80;5.60;;;;;;;31.99;44.05;100066.70;106319;1271;25231;-76
2022/08/19 10:31:19;;;;;;;11.70;5.60;;;;;;;32.01;43.19;100066.55;106519;1271;22549;-79
2022/08/19 10:34:06;;;;;;;10.30;5.20;;;;;;;32.02;42.71;100063.45;106454;1271;24195;-74
2022/08/19 10:36:38;;;;;;;6.60;5.20;;;;;;;32.03;42.45;100059.52;106408;1271;25249;-79
2022/08/19 10:39:28;;;;;;;8.00;5.50;;;;;;;32.15;42.75;100059.05;106369;1268;22652;-78
2022/08/19 10:41:56;;;;;;;6.50;5.30;;;;;;;32.29;42.42;100063.02;106500;1271;22623;-76
2022/08/19 10:44:24;;;;;;;6.40;5.40;;;;;;;32.35;41.89;100063.98;106373;1271;22698;-78
2022/08/19 10:46:58;;;;;;;8.70;5.30;;;;;;;32.40;41.80;100069.70;106366;1271;23931;-78
2022/08/19 10:49:26;;;;;;;5.90;5.00;;;;;;;32.49;41.73;100060.01;106332;1271;22525;-78
2022/08/19 10:57:34;;;;;;;8.50;5.70;;;;;;;32.91;40.90;100056.95;106394;1271;25296;-77
2022/08/19 11:00:22;;;;;;;8.60;5.20;;;;;;;33.01;40.76;100055.67;106402;1270;23097;-74
2022/08/19 11:02:50;;;;;;;9.60;5.50;;;;;;;33.09;40.54;100057.04;106484;1268;22499;-75
2022/08/19 11:05:18;;;;;;;8.10;5.50;;;;;;;33.14;40.03;100052.08;106277;1271;22528;-74
2022/08/19 11:07:45;;;;;;;10.60;5.50;;;;;;;33.14;39.47;100049.89;106419;1271;25293;-75
2022/08/19 11:10:14;;;;;;;7.40;4.80;;;;;;;33.19;39.66;100048.69;106519;1269;25207;-76
2022/08/19 11:12:47;;;;;;;8.90;4.90;;;;;;;33.29;39.30;100047.12;104469;1271;2716025;-80
2022/08/19 11:15:14;;;;;;;9.20;4.70;;;;;;;33.33;38.44;100041.26;106362;1271;22657;-77
2022/08/19 11:17:43;;;;;;;7.80;4.70;;;;;;;33.42;38.52;100032.29;106444;1271;25255;-78
2022/08/19 11:20:12;;;;;;;11.20;5.10;;;;;;;33.52;38.58;100032.40;106674;1271;25499;-76
2022/08/19 11:22:40;;;;;;;5.80;4.50;;;;;;;33.69;38.66;100029.42;106945;1269;24085;-77
2022/08/19 11:25:10;;;;;;;8.30;4.60;;;;;;;33.85;38.75;100024.77;107454;1269;22544;-78
2022/08/19 11:27:44;;;;;;;5.30;4.80;;;;;;;34.02;38.20;100022.97;107196;1271;22581;-79
2022/08/19 11:30:13;;;;;;;9.90;4.80;;;;;;;34.13;37.91;100027.55;107325;1268;25222;-79
2022/08/19 11:32:41;;;;;;;7.10;5.20;;;;;;;34.18;37.47;100025.98;107890;1271;22741;-77
2022/08/19 11:35:15;;;;;;;9.50;5.20;;;;;;;34.14;37.59;100019.83;107728;1271;22474;-76
2022/08/19 11:37:42;;;;;;;9.80;5.00;;;;;;;34.18;37.87;100013.50;107167;1271;25238;-73
2022/08/19 11:40:10;;;;;;;8.50;4.70;;;;;;;34.26;37.88;100017.64;106572;1271;22522;-78
2022/08/19 11:42:56;;;;;;;9.90;5.30;;;;;;;34.24;37.25;100016.44;106324;1271;25305;-78
2022/08/19 11:45:28;;;;;;;6.80;4.60;;;;;;;34.24;37.25;100008.40;106406;1271;22847;-75
2022/08/19 11:47:56;;;;;;;7.80;5.20;;;;;;;34.32;37.33;100010.75;106433;1268;22625;-76
2022/08/19 11:50:24;;;;;;;9.20;5.20;;;;;;;34.37;36.50;100002.36;106300;1271;22531;-80